createdAt,value
2023-04-07T00:02:07.017Z,49.05
2023-04-07T00:04:33.730Z,48.85
2023-04-07T00:07:00.521Z,48.47
2023-04-07T00:09:27.093Z,50.67
2023-04-07T00:11:53.739Z,52.55
2023-04-07T00:14:22.643Z,51.53
2023-04-07T00:16:49.265Z,48.65
2023-04-07T00:19:15.822Z,47.35
2023-04-07T00:21:42.432Z,48.35
2023-04-07T00:24:09.020Z,49.40
2023-04-07T00:26:35.608Z,47.17
2023-04-07T00:29:02.167Z,47.38
2023-04-07T00:31:28.786Z,47.85
2023-04-07T00:33:57.765Z,44.97
2023-04-07T00:36:24.476Z,47.42
2023-04-07T00:38:51.049Z,49.53
2023-04-07T00:41:17.756Z,50.05
2023-04-07T00:43:44.360Z,49.90
2023-04-07T00:46:11.040Z,50.22
2023-04-07T00:48:38.028Z,51.75
2023-04-07T00:51:06.804Z,48.05
2023-04-07T00:53:33.609Z,49.28
2023-04-07T00:56:00.311Z,49.45
2023-04-07T00:58:26.966Z,50.00
2023-04-07T01:01:09.513Z,50.63
2023-04-07T01:03:52.716Z,47.53
2023-04-07T01:06:24.216Z,46.03
2023-04-07T01:09:07.767Z,47.97
2023-04-07T01:11:44.345Z,49.13
2023-04-07T01:14:15.898Z,48.83
2023-04-07T01:16:46.836Z,49.42
2023-04-07T01:19:37.284Z,47.38
2023-04-07T01:22:11.018Z,48.25
2023-04-07T01:25:14.402Z,50.03
2023-04-07T01:27:49.530Z,49.03
2023-04-07T01:30:18.019Z,48.55
2023-04-07T01:32:50.414Z,48.28
2023-04-07T01:35:18.514Z,48.30
2023-04-07T01:37:48.840Z,47.63
2023-04-07T01:40:16.430Z,52.22
2023-04-07T01:42:43.193Z,50.33
2023-04-07T01:45:11.442Z,47.60
2023-04-07T01:47:39.370Z,42.50
2023-04-07T01:50:09.350Z,40.33
2023-04-07T01:52:36.987Z,45.60
2023-04-07T01:55:07.545Z,44.83
2023-04-07T01:57:34.135Z,44.17
2023-04-07T02:00:00.999Z,46.25
2023-04-07T02:02:28.982Z,44.47
2023-04-07T02:04:56.964Z,43.25
2023-04-07T02:07:58.037Z,45.47
2023-04-07T02:10:26.988Z,46.63
2023-04-07T02:12:56.077Z,43.22
2023-04-07T02:15:24.106Z,45.90
2023-04-07T02:17:53.626Z,47.15
2023-04-07T02:20:21.901Z,47.00
2023-04-07T02:22:48.612Z,48.85
2023-04-07T02:25:21.242Z,47.45
2023-04-07T02:27:47.812Z,47.75
2023-04-07T02:30:14.715Z,48.45
2023-04-07T02:32:41.495Z,48.60
2023-04-07T02:35:08.457Z,49.30
2023-04-07T02:37:35.496Z,49.00
2023-04-07T02:40:03.196Z,49.15
2023-04-07T02:42:29.804Z,48.67
2023-04-07T02:44:56.665Z,47.28
2023-04-07T02:47:23.706Z,49.90
2023-04-07T02:49:50.277Z,49.90
2023-04-07T02:52:17.347Z,48.47
2023-04-07T02:54:44.045Z,50.65
2023-04-07T02:57:10.776Z,51.70
2023-04-07T02:59:37.342Z,49.30
2023-04-07T03:02:06.374Z,49.70
2023-04-07T03:04:33.369Z,51.42
2023-04-07T03:07:00.631Z,50.53
2023-04-07T03:09:27.420Z,50.15
2023-04-07T03:11:54.176Z,48.50
2023-04-07T03:14:21.226Z,49.53
2023-04-07T03:16:48.027Z,52.03
2023-04-07T03:19:14.657Z,51.47
2023-04-07T03:21:41.335Z,50.08
2023-04-07T03:24:08.357Z,50.38
2023-04-07T03:26:35.308Z,50.70
2023-04-07T03:29:01.906Z,50.15
2023-04-07T03:31:28.447Z,47.53
2023-04-07T03:33:55.104Z,48.70
2023-04-07T03:36:22.373Z,49.58
2023-04-07T03:38:48.983Z,49.10
2023-04-07T03:41:15.632Z,48.95
2023-04-07T03:43:42.233Z,52.03
2023-04-07T03:46:11.726Z,51.03
2023-04-07T03:48:38.339Z,50.90
2023-04-07T03:51:04.981Z,50.65
2023-04-07T03:53:32.337Z,51.40
2023-04-07T03:55:59.241Z,52.40
2023-04-07T03:58:25.947Z,51.33
2023-04-07T04:00:52.499Z,55.10
2023-04-07T04:03:19.211Z,52.17
2023-04-07T04:05:46.390Z,51.85
2023-04-07T04:08:13.033Z,50.60
2023-04-07T04:10:39.599Z,50.15
2023-04-07T04:13:07.949Z,49.83
2023-04-07T04:15:34.588Z,50.67
2023-04-07T04:18:01.336Z,50.78
2023-04-07T04:20:27.958Z,50.42
2023-04-07T04:22:54.568Z,49.38
2023-04-07T04:25:21.316Z,50.45
2023-04-07T04:27:48.014Z,49.85
2023-04-07T04:30:14.722Z,47.20
2023-04-07T04:32:41.354Z,45.42
2023-04-07T04:35:08.637Z,44.97
2023-04-07T04:37:35.626Z,46.60
2023-04-07T04:40:02.237Z,46.42
2023-04-07T04:42:28.798Z,45.30
2023-04-07T04:44:55.402Z,44.38
2023-04-07T04:47:22.122Z,44.45
2023-04-07T04:49:48.715Z,48.88
2023-04-07T04:52:15.314Z,46.17
2023-04-07T04:54:42.026Z,47.28
2023-04-07T04:57:08.588Z,48.10
2023-04-07T04:59:35.299Z,49.55
2023-04-07T05:02:01.987Z,48.17
2023-04-07T05:04:28.878Z,46.08
2023-04-07T05:06:55.772Z,45.42
2023-04-07T05:09:22.419Z,45.85
2023-04-07T05:11:49.025Z,46.28
2023-04-07T05:14:15.817Z,44.88
2023-04-07T05:16:42.419Z,43.72
2023-04-07T05:19:09.068Z,43.45
2023-04-07T05:21:35.620Z,43.50
2023-04-07T05:24:02.373Z,42.28
2023-04-07T05:26:28.943Z,44.13
2023-04-07T05:28:55.563Z,44.65
2023-04-07T05:31:22.400Z,45.92
2023-04-07T05:33:49.238Z,43.25
2023-04-07T05:36:16.166Z,45.15
2023-04-07T05:38:42.942Z,44.60
2023-04-07T05:41:09.501Z,44.92
2023-04-07T05:43:36.047Z,45.88
2023-04-07T05:46:02.678Z,46.17
2023-04-07T05:48:29.261Z,47.92
2023-04-07T05:50:56.040Z,50.75
2023-04-07T05:53:22.686Z,49.42
2023-04-07T05:55:49.212Z,48.53
2023-04-07T05:58:16.404Z,48.97
2023-04-07T06:00:42.994Z,47.10
2023-04-07T06:03:09.746Z,47.92
2023-04-07T06:05:36.530Z,50.78
2023-04-07T06:08:03.211Z,50.28
2023-04-07T06:10:29.791Z,50.78
2023-04-07T06:12:56.532Z,49.13
2023-04-07T06:15:24.122Z,49.03
2023-04-07T06:17:50.909Z,48.17
2023-04-07T06:20:17.720Z,50.00
2023-04-07T06:22:44.517Z,51.25
2023-04-07T06:25:11.696Z,50.47
2023-04-07T06:27:38.368Z,50.83
2023-04-07T06:30:05.704Z,48.10
2023-04-07T06:32:33.470Z,49.75
2023-04-07T06:35:00.167Z,48.85
2023-04-07T06:37:26.877Z,47.03
2023-04-07T06:39:53.491Z,47.72
2023-04-07T06:42:21.340Z,47.80
2023-04-07T06:44:47.997Z,47.90
2023-04-07T06:47:14.537Z,48.22
2023-04-07T06:49:41.356Z,49.30
2023-04-07T06:52:08.008Z,48.97
2023-04-07T06:54:34.682Z,49.97
2023-04-07T06:57:01.664Z,49.25
2023-04-07T06:59:28.320Z,49.90
2023-04-07T07:01:55.037Z,48.10
2023-04-07T07:04:21.965Z,48.80
2023-04-07T07:06:48.654Z,45.75
2023-04-07T07:09:16.099Z,44.97
2023-04-07T07:11:42.680Z,43.67
2023-04-07T07:14:09.281Z,46.45
2023-04-07T07:16:37.205Z,45.22
2023-04-07T07:19:03.793Z,44.63
2023-04-07T07:21:31.469Z,44.47
2023-04-07T07:23:58.026Z,44.13
2023-04-07T07:26:24.608Z,44.05
2023-04-07T07:28:51.416Z,43.33
2023-04-07T07:31:18.779Z,44.58
2023-04-07T07:33:46.360Z,44.33
2023-04-07T07:36:13.269Z,44.00
2023-04-07T07:38:40.108Z,42.50
2023-04-07T07:41:07.610Z,40.70
2023-04-07T07:43:34.282Z,40.20
2023-04-07T07:46:01.073Z,41.45
2023-04-07T07:48:27.816Z,41.08
2023-04-07T07:50:56.899Z,36.92
2023-04-07T07:53:23.785Z,38.80
2023-04-07T07:55:50.468Z,36.90
2023-04-07T07:58:17.108Z,38.95
2023-04-07T08:00:43.717Z,34.97
2023-04-07T08:03:12.139Z,33.38
2023-04-07T08:05:38.954Z,34.00
2023-04-07T08:08:05.565Z,39.58
2023-04-07T08:10:32.135Z,40.42
2023-04-07T08:12:58.726Z,49.40
2023-04-07T08:15:25.619Z,47.90
2023-04-07T08:17:53.432Z,49.92
2023-04-07T08:20:21.545Z,47.72
2023-04-07T08:22:48.754Z,49.15
2023-04-07T08:25:15.649Z,48.05
2023-04-07T08:27:42.242Z,42.17
2023-04-07T08:30:09.167Z,40.67
2023-04-07T08:32:44.088Z,39.30
2023-04-07T08:35:11.637Z,36.97
2023-04-07T08:37:39.534Z,37.83
2023-04-07T08:40:06.913Z,39.42
2023-04-07T08:42:35.201Z,41.90
2023-04-07T08:45:06.496Z,38.85
2023-04-07T08:47:34.579Z,36.80
2023-04-07T08:50:03.937Z,36.50
2023-04-07T08:53:07.297Z,32.92
2023-04-07T08:55:36.046Z,33.13
2023-04-07T08:58:04.313Z,41.60
2023-04-07T09:00:31.896Z,37.85
2023-04-07T09:03:01.025Z,39.83
2023-04-07T09:05:27.925Z,39.75
2023-04-07T09:07:56.543Z,44.90
2023-04-07T09:10:23.166Z,45.28
2023-04-07T09:12:49.859Z,44.53
2023-04-07T09:15:16.543Z,44.28
2023-04-07T09:17:43.361Z,43.60
2023-04-07T09:20:10.539Z,43.75
2023-04-07T09:22:45.734Z,47.47
2023-04-07T09:25:17.983Z,47.45
2023-04-07T09:28:01.793Z,45.50
2023-04-07T09:30:30.506Z,45.58
2023-04-07T09:32:58.058Z,42.75
2023-04-07T09:35:24.912Z,43.30
2023-04-07T09:38:08.779Z,42.75
2023-04-07T09:40:36.820Z,41.03
2023-04-07T09:43:05.514Z,41.63
2023-04-07T09:45:35.347Z,40.25
2023-04-07T09:48:07.777Z,39.30
2023-04-07T09:50:41.698Z,41.53
2023-04-07T09:53:08.608Z,43.13
2023-04-07T09:55:36.309Z,40.47
2023-04-07T09:58:05.182Z,36.10
2023-04-07T10:00:32.102Z,36.08
2023-04-07T10:02:59.109Z,42.13
2023-04-07T10:05:26.490Z,45.15
2023-04-07T10:07:53.107Z,47.42
2023-04-07T10:10:19.839Z,47.42
2023-04-07T10:12:48.375Z,44.22
2023-04-07T10:15:18.548Z,39.95
2023-04-07T10:17:51.733Z,41.70
2023-04-07T10:20:21.039Z,40.42
2023-04-07T10:22:51.354Z,44.55
2023-04-07T10:25:21.277Z,43.70
2023-04-07T10:27:59.839Z,40.38
2023-04-07T10:30:31.878Z,38.90
2023-04-07T10:32:58.987Z,38.00
2023-04-07T10:35:26.446Z,37.08
2023-04-07T10:38:08.559Z,38.42
2023-04-07T10:40:36.789Z,38.42
2023-04-07T10:43:04.829Z,36.13
2023-04-07T10:45:49.571Z,37.47
2023-04-07T10:48:18.017Z,36.35
2023-04-07T10:51:04.539Z,34.90
2023-04-07T10:53:32.113Z,34.88
2023-04-07T10:56:01.523Z,35.40
2023-04-07T10:58:32.350Z,33.78
2023-04-07T11:01:08.501Z,32.95
2023-04-07T11:03:39.099Z,32.17
2023-04-07T11:06:06.721Z,32.05
2023-04-07T11:08:37.674Z,31.88
2023-04-07T11:11:11.631Z,31.92
2023-04-07T11:13:49.218Z,32.28
2023-04-07T11:16:18.349Z,32.38
2023-04-07T11:18:46.436Z,32.95
2023-04-07T11:21:18.567Z,31.85
2023-04-07T11:23:48.480Z,32.20
2023-04-07T11:26:16.509Z,31.20
2023-04-07T11:28:52.471Z,33.45
2023-04-07T11:31:25.500Z,34.58
2023-04-07T11:33:54.765Z,33.00
2023-04-07T11:36:29.614Z,34.25
2023-04-07T11:38:57.725Z,33.63
2023-04-07T11:41:27.272Z,34.55
2023-04-07T11:44:11.675Z,33.58
2023-04-07T11:46:52.891Z,34.53
2023-04-07T11:49:19.477Z,33.58
2023-04-07T11:51:47.148Z,35.10
2023-04-07T11:54:13.900Z,34.63
2023-04-07T11:56:48.000Z,35.85
2023-04-07T11:59:25.610Z,36.85
2023-04-07T12:01:55.448Z,36.22
2023-04-07T12:04:23.945Z,36.25
2023-04-07T12:06:51.477Z,35.08
2023-04-07T12:09:32.645Z,37.55
2023-04-07T12:11:59.560Z,35.50
2023-04-07T12:14:27.892Z,34.95
2023-04-07T12:16:58.916Z,33.47
2023-04-07T12:19:29.806Z,35.03
2023-04-07T12:21:57.125Z,35.17
2023-04-07T12:24:23.995Z,34.95
2023-04-07T12:26:50.713Z,35.30
2023-04-07T12:29:20.029Z,35.55
2023-04-07T12:31:49.383Z,33.85
2023-04-07T12:34:17.270Z,33.67
2023-04-07T12:36:44.654Z,34.15
2023-04-07T12:39:11.625Z,34.67
2023-04-07T12:41:38.798Z,33.22
2023-04-07T12:44:06.018Z,34.53
2023-04-07T12:46:32.797Z,32.35
2023-04-07T12:48:59.574Z,34.50
2023-04-07T12:51:27.134Z,36.33
2023-04-07T12:53:54.339Z,34.83
2023-04-07T12:56:24.327Z,33.75
2023-04-07T12:58:51.204Z,32.50
2023-04-07T13:01:17.787Z,31.20
2023-04-07T13:03:44.640Z,32.03
2023-04-07T13:06:11.784Z,31.67
2023-04-07T13:08:39.336Z,31.55
2023-04-07T13:11:06.440Z,31.92
2023-04-07T13:13:33.634Z,34.72
2023-04-07T13:16:00.444Z,31.08
2023-04-07T13:18:27.069Z,32.53
2023-04-07T13:21:10.699Z,31.80
2023-04-07T13:23:49.428Z,32.55
2023-04-07T13:26:16.116Z,33.78
2023-04-07T13:28:45.969Z,32.70
2023-04-07T13:31:15.923Z,32.10
2023-04-07T13:33:42.913Z,33.15
2023-04-07T13:36:09.587Z,33.78
2023-04-07T13:38:36.682Z,33.95
2023-04-07T13:41:04.105Z,33.47
2023-04-07T13:43:30.734Z,32.78
2023-04-07T13:45:57.341Z,33.08
2023-04-07T13:48:24.016Z,32.47
2023-04-07T13:50:50.874Z,31.55
2023-04-07T13:53:19.115Z,32.33
2023-04-07T13:55:46.105Z,33.60
2023-04-07T13:58:12.892Z,34.13
2023-04-07T14:00:40.356Z,33.70
2023-04-07T14:03:07.926Z,34.38
2023-04-07T14:05:35.804Z,34.03
2023-04-07T14:08:02.461Z,33.80
2023-04-07T14:10:29.368Z,33.97
2023-04-07T14:12:56.304Z,34.28
2023-04-07T14:15:23.115Z,34.90
2023-04-07T14:17:49.754Z,34.13
2023-04-07T14:20:16.400Z,34.97
2023-04-07T14:22:42.985Z,34.22
2023-04-07T14:25:11.230Z,33.38
2023-04-07T14:27:37.821Z,34.25
2023-04-07T14:30:04.910Z,33.22
2023-04-07T14:32:33.374Z,34.85
2023-04-07T14:35:00.246Z,34.10
2023-04-07T14:37:28.554Z,34.63
2023-04-07T14:40:02.030Z,35.15
2023-04-07T14:42:30.069Z,35.63
2023-04-07T14:44:56.723Z,34.08
2023-04-07T14:47:23.649Z,33.40
2023-04-07T14:49:53.240Z,35.60
2023-04-07T14:52:22.085Z,34.25
2023-04-07T14:54:48.889Z,33.53
2023-04-07T14:57:16.463Z,33.95
2023-04-07T14:59:43.286Z,32.33
2023-04-07T15:02:09.889Z,32.35
2023-04-07T15:04:36.611Z,33.40
2023-04-07T15:07:03.619Z,34.08
2023-04-07T15:09:30.393Z,34.58
2023-04-07T15:11:57.042Z,34.85
2023-04-07T15:14:23.647Z,33.83
2023-04-07T15:16:50.473Z,32.63
2023-04-07T15:19:17.065Z,34.58
2023-04-07T15:21:43.714Z,34.38
2023-04-07T15:24:10.296Z,33.25
2023-04-07T15:26:36.815Z,33.53
2023-04-07T15:29:03.431Z,33.28
2023-04-07T15:31:30.331Z,33.47
2023-04-07T15:33:57.006Z,34.10
2023-04-07T15:36:23.793Z,37.25
2023-04-07T15:38:50.368Z,32.25
2023-04-07T15:41:18.391Z,35.35
2023-04-07T15:43:45.003Z,34.20
2023-04-07T15:46:11.586Z,32.88
2023-04-07T15:48:38.152Z,32.90
2023-04-07T15:51:04.965Z,34.08
2023-04-07T15:53:31.595Z,34.47
2023-04-07T15:55:58.283Z,33.30
2023-04-07T15:58:24.810Z,34.42
2023-04-07T16:00:51.590Z,33.67
2023-04-07T16:03:18.450Z,34.03
2023-04-07T16:05:45.219Z,35.05
2023-04-07T16:08:13.677Z,36.13
2023-04-07T16:10:40.669Z,36.75
2023-04-07T16:13:07.320Z,36.20
2023-04-07T16:15:40.834Z,34.85
2023-04-07T16:18:12.339Z,33.10
2023-04-07T16:20:39.296Z,35.90
2023-04-07T16:23:05.924Z,34.67
2023-04-07T16:25:33.043Z,34.67
2023-04-07T16:27:59.614Z,34.80
2023-04-07T16:30:26.487Z,39.72
2023-04-07T16:32:53.052Z,36.42
2023-04-07T16:35:19.761Z,36.05
2023-04-07T16:37:46.618Z,34.55
2023-04-07T16:40:13.675Z,35.95
2023-04-07T16:42:40.948Z,36.53
2023-04-07T16:45:08.606Z,36.58
2023-04-07T16:47:35.635Z,36.00
2023-04-07T16:50:04.144Z,38.35
2023-04-07T16:52:31.557Z,36.65
2023-04-07T16:54:58.301Z,36.17
2023-04-07T16:57:24.867Z,37.47
2023-04-07T16:59:51.489Z,37.65
2023-04-07T17:02:18.489Z,35.50
2023-04-07T17:04:45.420Z,36.33
2023-04-07T17:07:12.310Z,38.05
2023-04-07T17:09:39.341Z,41.13
2023-04-07T17:12:06.270Z,38.53
2023-04-07T17:14:33.290Z,38.72
2023-04-07T17:16:59.871Z,35.65
2023-04-07T17:19:26.464Z,38.88
2023-04-07T17:21:53.049Z,37.55
2023-04-07T17:24:19.691Z,36.50
2023-04-07T17:26:46.690Z,39.40
2023-04-07T17:29:14.480Z,37.10
2023-04-07T17:31:41.619Z,39.55
2023-04-07T17:34:08.644Z,37.67
2023-04-07T17:36:35.765Z,37.63
2023-04-07T17:39:03.080Z,35.55
2023-04-07T17:41:31.169Z,37.42
2023-04-07T17:43:57.740Z,35.95
2023-04-07T17:46:24.420Z,37.78
2023-04-07T17:48:51.716Z,35.72
2023-04-07T17:51:18.438Z,34.40
2023-04-07T17:53:44.990Z,35.33
2023-04-07T17:56:12.757Z,35.45
2023-04-07T17:58:39.421Z,35.28
2023-04-07T18:01:08.283Z,35.67
2023-04-07T18:03:34.978Z,35.35
2023-04-07T18:06:02.109Z,35.30
2023-04-07T18:08:29.859Z,36.33
2023-04-07T18:10:56.548Z,35.50
2023-04-07T18:13:23.384Z,36.03
2023-04-07T18:15:50.090Z,35.05
2023-04-07T18:18:16.797Z,36.85
2023-04-07T18:20:43.341Z,34.75
2023-04-07T18:23:10.659Z,34.45
2023-04-07T18:25:37.328Z,35.67
2023-04-07T18:28:04.052Z,33.88
2023-04-07T18:30:30.669Z,34.15
2023-04-07T18:32:57.260Z,35.10
2023-04-07T18:35:25.645Z,35.92
2023-04-07T18:37:52.731Z,35.25
2023-04-07T18:40:19.360Z,35.95
2023-04-07T18:42:46.374Z,34.28
2023-04-07T18:45:13.023Z,33.72
2023-04-07T18:47:39.651Z,35.28
2023-04-07T18:50:06.823Z,34.35
2023-04-07T18:52:33.443Z,33.58
2023-04-07T18:55:00.122Z,32.78
2023-04-07T18:57:26.643Z,32.28
2023-04-07T18:59:53.190Z,33.80
2023-04-07T19:02:19.936Z,31.85
2023-04-07T19:04:46.567Z,31.98
2023-04-07T19:07:13.188Z,33.78
2023-04-07T19:09:39.963Z,33.38
2023-04-07T19:12:06.627Z,31.63
2023-04-07T19:14:33.168Z,33.97
2023-04-07T19:17:00.028Z,32.78
2023-04-07T19:19:27.844Z,33.67
2023-04-07T19:21:54.500Z,33.65
2023-04-07T19:24:21.053Z,35.45
2023-04-07T19:26:47.640Z,34.58
2023-04-07T19:29:14.272Z,35.20
2023-04-07T19:31:40.935Z,34.72
2023-04-07T19:34:07.573Z,35.78
2023-04-07T19:36:34.174Z,33.85
2023-04-07T19:39:01.028Z,34.67
2023-04-07T19:41:29.309Z,33.47
2023-04-07T19:43:57.194Z,35.55
2023-04-07T19:46:23.923Z,35.80
2023-04-07T19:48:50.579Z,35.05
2023-04-07T19:51:17.301Z,37.22
2023-04-07T19:53:44.040Z,36.78
2023-04-07T19:56:11.305Z,38.28
2023-04-07T19:58:38.610Z,38.67
2023-04-07T20:01:05.321Z,37.00
2023-04-07T20:03:32.139Z,37.58
2023-04-07T20:05:59.652Z,38.60
2023-04-07T20:08:26.702Z,40.83
2023-04-07T20:10:53.397Z,38.47
2023-04-07T20:13:20.388Z,40.38
2023-04-07T20:15:49.098Z,40.00
2023-04-07T20:18:18.522Z,45.40
2023-04-07T20:20:46.113Z,45.38
2023-04-07T20:23:13.591Z,48.10
2023-04-07T20:25:40.204Z,48.75
2023-04-07T20:28:06.810Z,46.63
2023-04-07T20:30:33.429Z,46.50
2023-04-07T20:33:00.070Z,47.60
2023-04-07T20:35:26.754Z,47.78
2023-04-07T20:37:53.375Z,47.22
2023-04-07T20:40:19.971Z,46.17
2023-04-07T20:42:46.830Z,46.40
2023-04-07T20:45:13.556Z,45.47
2023-04-07T20:47:40.585Z,43.88
2023-04-07T20:50:08.178Z,43.20
2023-04-07T20:52:39.480Z,43.53
2023-04-07T20:55:07.283Z,42.95
2023-04-07T20:57:33.880Z,44.83
2023-04-07T21:00:00.925Z,42.65
2023-04-07T21:02:27.828Z,42.95
2023-04-07T21:04:54.550Z,43.60
2023-04-07T21:07:21.118Z,44.10
2023-04-07T21:09:47.672Z,43.75
2023-04-07T21:12:14.266Z,43.97
2023-04-07T21:14:40.912Z,46.33
2023-04-07T21:17:07.525Z,43.45
2023-04-07T21:19:34.208Z,43.35
2023-04-07T21:22:01.577Z,43.05
2023-04-07T21:24:29.722Z,44.35
2023-04-07T21:26:56.380Z,45.50
2023-04-07T21:29:23.114Z,44.28
2023-04-07T21:31:50.320Z,44.50
2023-04-07T21:34:16.880Z,44.22
2023-04-07T21:36:43.662Z,45.17
2023-04-07T21:39:10.193Z,47.35
2023-04-07T21:41:37.207Z,45.78
2023-04-07T21:44:03.930Z,46.25
2023-04-07T21:46:31.007Z,45.47
2023-04-07T21:48:58.493Z,45.55
2023-04-07T21:51:25.080Z,48.45
2023-04-07T21:53:52.369Z,46.58
2023-04-07T21:56:19.798Z,44.78
2023-04-07T21:58:47.222Z,47.33
2023-04-07T22:01:14.065Z,45.22
2023-04-07T22:03:40.816Z,49.38
2023-04-07T22:06:07.493Z,50.63
2023-04-07T22:08:34.076Z,53.00
2023-04-07T22:11:00.756Z,57.00
2023-04-07T22:13:27.411Z,57.72
2023-04-07T22:15:54.085Z,59.20
2023-04-07T22:18:22.040Z,62.10
2023-04-07T22:20:48.855Z,61.00
2023-04-07T22:23:15.394Z,61.80
2023-04-07T22:25:41.953Z,62.00
2023-04-07T22:28:08.609Z,61.03
2023-04-07T22:30:35.425Z,59.30
2023-04-07T22:33:02.094Z,58.08
2023-04-07T22:35:28.788Z,58.22
2023-04-07T22:37:55.652Z,60.97
2023-04-07T22:40:22.409Z,58.20
2023-04-07T22:42:48.939Z,61.20
2023-04-07T22:45:15.505Z,63.60
2023-04-07T22:47:42.118Z,67.53
2023-04-07T22:50:09.117Z,69.35
2023-04-07T22:52:35.658Z,66.68
2023-04-07T22:55:02.246Z,65.32
2023-04-07T22:57:28.888Z,68.30
2023-04-07T22:59:55.707Z,64.80
2023-04-07T23:02:22.520Z,64.90
2023-04-07T23:04:49.708Z,68.57
2023-04-07T23:07:16.566Z,68.53
2023-04-07T23:09:43.154Z,67.55
2023-04-07T23:12:09.704Z,65.97
2023-04-07T23:14:36.249Z,67.53
2023-04-07T23:17:03.055Z,63.47
2023-04-07T23:19:29.666Z,66.00
2023-04-07T23:21:56.360Z,69.32
2023-04-07T23:24:23.011Z,72.35
2023-04-07T23:26:49.575Z,73.35
2023-04-07T23:29:16.215Z,74.32
2023-04-07T23:31:42.854Z,73.45
2023-04-07T23:34:09.454Z,78.55
2023-04-07T23:36:36.032Z,73.97
2023-04-07T23:39:02.673Z,75.07
2023-04-07T23:41:29.232Z,76.70
2023-04-07T23:43:55.760Z,77.75
2023-04-07T23:46:23.990Z,79.28
2023-04-07T23:48:50.953Z,78.00
2023-04-07T23:51:17.692Z,79.05
2023-04-07T23:53:44.262Z,79.72
2023-04-07T23:56:11.021Z,78.15
2023-04-07T23:58:37.650Z,77.75
